Time;durP1;ratioP1;P1;durP2;ratioP2;P2;SDS_P1;SDS_P2;PMS_P1;PMS_P2;Temp;Humidity;BMP_temperature;BMP_pressure;BME280_temperature;BME280_humidity;BME280_pressure;Samples;Min_cycle;Max_cycle;Signal;HPM_P1;HPM_P2
2022/03/13 00:00:36;;;;;;;5.73;4.50;;;5.60;99.90;;;;;;4987194;28;20211;-48
2022/03/13 00:03:06;;;;;;;9.43;4.60;;;5.50;99.90;;;;;;4996760;28;20663;-46
2022/03/13 00:05:40;;;;;;;7.37;5.07;;;5.50;99.90;;;;;;4987161;28;20585;-49
2022/03/13 00:08:18;;;;;;;12.13;4.40;;;5.50;99.90;;;;;;5013383;28;20268;-47
2022/03/13 00:10:56;;;;;;;5.17;4.17;;;5.60;99.90;;;;;;4979797;28;20214;-47
2022/03/13 00:13:30;;;;;;;7.17;4.63;;;5.50;99.90;;;;;;5009451;28;21468;-50
2022/03/13 00:15:58;;;;;;;5.83;4.37;;;5.40;99.90;;;;;;5017788;28;20213;-48
2022/03/13 00:18:26;;;;;;;7.33;4.50;;;5.40;99.90;;;;;;4991022;28;20272;-49
2022/03/13 00:20:54;;;;;;;7.47;4.90;;;5.40;99.90;;;;;;5010726;28;20206;-44
2022/03/13 00:23:21;;;;;;;8.03;4.50;;;5.40;99.90;;;;;;5008910;28;20292;-49
2022/03/13 00:25:48;;;;;;;6.30;4.30;;;5.30;99.90;;;;;;4983460;28;20210;-48
2022/03/13 00:28:15;;;;;;;11.20;4.87;;;5.30;99.90;;;;;;5015343;28;20553;-45
2022/03/13 00:30:42;;;;;;;7.17;4.50;;;5.40;99.90;;;;;;5002769;28;20283;-46
2022/03/13 00:33:10;;;;;;;6.83;4.20;;;5.40;99.90;;;;;;5009755;28;20241;-42
2022/03/13 00:35:39;;;;;;;10.57;4.50;;;5.40;99.90;;;;;;4993621;28;20206;-49
2022/03/13 00:38:07;;;;;;;7.23;4.80;;;5.40;99.90;;;;;;5002919;28;20523;-44
2022/03/13 00:40:34;;;;;;;6.67;4.40;;;5.40;99.90;;;;;;4981366;28;20232;-48
2022/03/13 00:43:01;;;;;;;9.93;5.00;;;5.40;99.90;;;;;;5014700;28;20229;-44
2022/03/13 00:45:28;;;;;;;11.77;4.40;;;5.30;99.90;;;;;;5007244;28;20281;-47
2022/03/13 00:47:55;;;;;;;8.37;4.30;;;5.30;99.90;;;;;;5019566;28;20204;-43
2022/03/13 00:50:22;;;;;;;6.30;4.40;;;5.20;99.90;;;;;;4992709;28;20444;-48
2022/03/13 00:52:51;;;;;;;6.97;4.30;;;5.20;99.90;;;;;;5003132;28;20930;-44
2022/03/13 00:55:18;;;;;;;8.23;4.73;;;5.20;99.90;;;;;;4997164;28;20285;-47
2022/03/13 00:57:45;;;;;;;7.80;4.67;;;5.20;99.90;;;;;;5002050;28;20256;-48
2022/03/13 01:00:13;;;;;;;8.50;4.67;;;5.10;99.90;;;;;;4998822;28;20281;-47
2022/03/13 01:02:40;;;;;;;6.67;4.60;;;5.10;99.90;;;;;;5017238;28;21128;-45
2022/03/13 01:05:09;;;;;;;6.77;4.50;;;5.10;99.90;;;;;;5002763;28;20215;-44
2022/03/13 01:07:36;;;;;;;9.00;4.60;;;5.10;99.90;;;;;;4995025;28;20203;-46
2022/03/13 01:10:07;;;;;;;10.93;4.77;;;5.10;99.90;;;;;;5006141;28;20281;-45
2022/03/13 01:12:35;;;;;;;7.53;5.00;;;5.10;99.90;;;;;;4982553;28;20252;-44
2022/03/13 01:15:01;;;;;;;5.57;4.20;;;5.20;99.90;;;;;;5018410;28;20212;-45
2022/03/13 01:17:28;;;;;;;6.23;4.30;;;5.30;99.90;;;;;;4989452;28;20286;-46
2022/03/13 01:19:55;;;;;;;11.70;4.90;;;5.20;99.90;;;;;;4999093;28;20221;-45
2022/03/13 01:22:22;;;;;;;6.07;3.97;;;5.20;99.90;;;;;;5016713;28;20226;-47
2022/03/13 01:24:51;;;;;;;7.07;4.27;;;5.20;99.90;;;;;;5000649;28;20300;-45
2022/03/13 01:27:19;;;;;;;9.73;4.10;;;5.20;99.90;;;;;;5006285;28;20216;-46
2022/03/13 01:29:47;;;;;;;7.67;4.53;;;5.20;99.90;;;;;;5012051;28;20226;-44
2022/03/13 01:32:15;;;;;;;6.97;4.80;;;5.20;99.90;;;;;;5005771;28;20305;-45
2022/03/13 01:34:45;;;;;;;7.03;4.87;;;5.20;99.90;;;;;;4986140;28;21638;-45
2022/03/13 01:37:31;;;;;;;7.03;4.50;;;5.10;99.90;;;;;;5020716;28;20221;-45
2022/03/13 01:39:59;;;;;;;7.73;4.73;;;5.00;99.90;;;;;;5011472;28;20225;-44
2022/03/13 01:42:28;;;;;;;7.60;4.93;;;5.00;99.90;;;;;;5000643;28;20230;-46
2022/03/13 01:44:55;;;;;;;9.10;4.70;;;4.90;99.90;;;;;;5010482;28;20202;-45
2022/03/13 01:47:23;;;;;;;9.63;4.63;;;4.90;99.90;;;;;;5007661;28;20210;-46
2022/03/13 01:49:51;;;;;;;9.47;4.97;;;4.90;99.90;;;;;;5000732;28;20313;-44
2022/03/13 01:52:24;;;;;;;10.00;4.43;;;4.90;99.90;;;;;;5000194;28;20234;-43
2022/03/13 01:54:51;;;;;;;7.30;4.87;;;4.80;99.90;;;;;;5011401;28;20725;-47
2022/03/13 01:57:19;;;;;;;7.47;5.00;;;4.80;99.90;;;;;;4998940;28;20216;-49
2022/03/13 01:59:51;;;;;;;10.63;4.83;;;4.70;99.90;;;;;;5003512;28;20244;-44
2022/03/13 02:02:20;;;;;;;8.13;4.97;;;4.70;99.90;;;;;;5015186;28;20614;-49
2022/03/13 02:04:52;;;;;;;7.33;4.83;;;4.60;99.90;;;;;;5001740;28;20199;-46
2022/03/13 02:07:19;;;;;;;7.77;4.93;;;4.60;99.90;;;;;;4981173;28;21019;-49
2022/03/13 02:09:47;;;;;;;5.67;4.43;;;4.60;99.90;;;;;;5011626;28;20274;-45
2022/03/13 02:12:17;;;;;;;6.20;4.37;;;4.50;99.90;;;;;;5001443;28;20469;-45
2022/03/13 02:14:44;;;;;;;7.67;4.83;;;4.50;99.90;;;;;;4996780;28;20316;-44
2022/03/13 02:17:12;;;;;;;9.17;4.33;;;4.50;99.90;;;;;;5014923;28;20213;-44
2022/03/13 02:19:39;;;;;;;6.30;5.03;;;4.50;99.90;;;;;;4987345;28;20254;-46
2022/03/13 02:22:07;;;;;;;8.70;5.03;;;4.50;99.90;;;;;;4997249;28;20338;-47
2022/03/13 02:24:35;;;;;;;7.20;4.63;;;4.50;99.90;;;;;;5012116;28;20212;-46
2022/03/13 02:27:04;;;;;;;7.67;5.00;;;4.40;99.90;;;;;;5002177;28;20210;-46
2022/03/13 02:29:32;;;;;;;10.57;5.27;;;4.50;99.90;;;;;;4988721;28;20206;-45
2022/03/13 02:32:00;;;;;;;6.87;4.83;;;4.60;99.90;;;;;;5008097;28;21067;-46
2022/03/13 02:34:28;;;;;;;5.70;4.60;;;4.60;99.90;;;;;;4998854;28;20223;-45
2022/03/13 02:37:00;;;;;;;6.70;4.93;;;4.50;99.90;;;;;;4991752;28;23059;-46
2022/03/13 02:39:28;;;;;;;7.57;4.83;;;4.50;99.90;;;;;;5002981;28;20234;-44
2022/03/13 02:41:56;;;;;;;6.70;4.90;;;4.50;99.90;;;;;;4990634;28;20237;-46
2022/03/13 02:44:24;;;;;;;7.97;5.13;;;4.50;99.90;;;;;;5004270;28;20217;-44
2022/03/13 02:46:55;;;;;;;7.90;5.07;;;4.50;99.90;;;;;;5000170;28;20277;-46
2022/03/13 02:49:23;;;;;;;6.17;4.60;;;4.40;99.90;;;;;;5005263;28;20306;-44
2022/03/13 02:51:52;;;;;;;5.47;4.60;;;4.30;99.90;;;;;;4997693;28;20213;-46
2022/03/13 02:54:20;;;;;;;8.23;4.63;;;4.20;99.90;;;;;;5003079;28;20309;-45
2022/03/13 02:56:48;;;;;;;8.73;5.17;;;4.20;99.90;;;;;;5006233;28;20280;-46
2022/03/13 02:59:16;;;;;;;10.00;4.97;;;4.20;99.90;;;;;;5002206;28;20336;-44
2022/03/13 03:01:43;;;;;;;9.00;4.93;;;4.20;99.90;;;;;;5007898;28;20301;-46
2022/03/13 03:04:11;;;;;;;7.33;4.40;;;4.30;99.90;;;;;;5003989;28;20217;-43
2022/03/13 03:06:39;;;;;;;7.23;4.73;;;4.20;99.90;;;;;;5015499;28;20275;-46
2022/03/13 03:09:06;;;;;;;6.70;4.80;;;4.20;99.90;;;;;;4985104;28;22418;-44
2022/03/13 03:11:34;;;;;;;7.20;4.87;;;4.20;99.90;;;;;;5009227;28;20280;-46
2022/03/13 03:14:02;;;;;;;8.17;5.10;;;4.10;99.90;;;;;;5002997;28;20209;-45
2022/03/13 03:16:30;;;;;;;7.37;5.13;;;4.10;99.90;;;;;;4996471;28;20282;-46
2022/03/13 03:18:57;;;;;;;8.13;5.00;;;4.10;99.90;;;;;;5011012;28;20225;-46
2022/03/13 03:21:24;;;;;;;7.20;4.93;;;4.10;99.90;;;;;;5003136;28;20210;-45
2022/03/13 03:23:51;;;;;;;9.17;5.17;;;4.10;99.90;;;;;;4981107;28;20226;-45
2022/03/13 03:26:18;;;;;;;13.03;5.20;;;4.00;99.90;;;;;;5015334;28;20224;-44
2022/03/13 03:28:46;;;;;;;12.30;5.47;;;4.00;99.90;;;;;;4989270;28;20214;-46
2022/03/13 03:31:14;;;;;;;9.37;5.23;;;4.00;99.90;;;;;;5009542;28;20216;-44
2022/03/13 03:33:43;;;;;;;7.37;4.60;;;4.10;99.90;;;;;;5005901;28;20227;-46
2022/03/13 03:36:14;;;;;;;7.10;4.67;;;4.00;99.90;;;;;;5004519;28;20206;-45
2022/03/13 03:38:41;;;;;;;12.67;5.57;;;4.10;99.90;;;;;;4992949;28;20237;-45
2022/03/13 03:41:08;;;;;;;8.13;5.17;;;4.10;99.90;;;;;;4996891;28;20216;-44
2022/03/13 03:43:35;;;;;;;11.73;5.33;;;4.10;99.90;;;;;;5006602;28;20722;-46
2022/03/13 03:46:02;;;;;;;9.93;5.53;;;4.00;99.90;;;;;;4995886;28;20314;-45
2022/03/13 03:48:30;;;;;;;11.53;5.57;;;3.90;99.90;;;;;;5010967;28;21376;-48
2022/03/13 03:50:59;;;;;;;7.57;5.13;;;3.80;99.90;;;;;;4998995;28;20934;-45
2022/03/13 03:53:26;;;;;;;8.43;5.30;;;3.80;99.90;;;;;;5018891;28;20249;-44
2022/03/13 03:55:53;;;;;;;5.53;4.77;;;3.80;99.90;;;;;;4993850;28;20210;-45
2022/03/13 03:58:21;;;;;;;9.93;5.30;;;3.80;99.90;;;;;;4997472;28;20214;-44
2022/03/13 04:00:48;;;;;;;7.63;5.17;;;3.80;99.90;;;;;;4990815;28;20209;-44
2022/03/13 04:03:15;;;;;;;6.60;4.73;;;3.80;99.90;;;;;;5017931;28;20234;-45
2022/03/13 04:05:42;;;;;;;7.77;5.53;;;3.90;99.90;;;;;;4995860;28;20252;-44
2022/03/13 04:08:10;;;;;;;8.17;4.87;;;3.80;99.90;;;;;;5004869;28;20215;-45
2022/03/13 04:10:37;;;;;;;8.40;4.83;;;3.70;99.90;;;;;;5003206;28;20206;-44
2022/03/13 04:13:04;;;;;;;7.57;4.90;;;3.70;99.90;;;;;;4993468;28;20217;-44
2022/03/13 04:15:31;;;;;;;8.70;5.47;;;3.60;99.90;;;;;;5006507;28;20578;-44
2022/03/13 04:17:58;;;;;;;7.90;5.47;;;3.50;99.90;;;;;;4996549;28;20207;-44
2022/03/13 04:20:26;;;;;;;6.80;4.87;;;3.50;99.90;;;;;;5011085;28;20335;-44
2022/03/13 04:22:53;;;;;;;6.60;4.63;;;3.50;99.90;;;;;;5004380;28;20232;-45
2022/03/13 04:25:21;;;;;;;6.77;4.80;;;3.60;99.90;;;;;;4997535;28;20213;-45
2022/03/13 04:27:48;;;;;;;8.70;5.27;;;3.60;99.90;;;;;;4993695;28;20519;-44
2022/03/13 04:30:15;;;;;;;7.53;4.97;;;3.60;99.90;;;;;;5001733;28;20313;-44
2022/03/13 04:32:42;;;;;;;11.17;5.40;;;3.60;99.90;;;;;;4988027;28;20311;-45
2022/03/13 04:35:09;;;;;;;9.63;5.37;;;3.50;99.90;;;;;;5009598;28;20217;-44
2022/03/13 04:37:37;;;;;;;9.10;4.80;;;3.50;99.90;;;;;;5009958;28;20415;-44
2022/03/13 04:40:04;;;;;;;7.30;5.03;;;3.60;99.90;;;;;;5006074;28;20252;-43
2022/03/13 04:42:32;;;;;;;8.60;5.17;;;3.50;99.90;;;;;;4997203;28;20391;-43
2022/03/13 04:44:59;;;;;;;8.50;5.60;;;3.50;99.90;;;;;;5001793;28;20690;-44
2022/03/13 04:47:31;;;;;;;7.17;5.03;;;3.50;99.90;;;;;;5005825;28;20240;-45
2022/03/13 04:49:59;;;;;;;7.70;5.40;;;3.50;99.90;;;;;;4996465;28;20263;-44
2022/03/13 04:52:27;;;;;;;10.23;5.50;;;3.50;99.90;;;;;;5005128;28;20274;-45
2022/03/13 04:54:54;;;;;;;8.10;5.17;;;3.40;99.90;;;;;;5004791;28;20516;-43
2022/03/13 04:57:21;;;;;;;9.07;5.17;;;3.30;99.90;;;;;;5000101;28;20678;-45
2022/03/13 04:59:49;;;;;;;9.70;5.47;;;3.30;99.90;;;;;;5006422;28;20239;-45
2022/03/13 05:02:16;;;;;;;8.13;5.20;;;3.20;99.90;;;;;;5017874;28;20300;-45
2022/03/13 05:04:44;;;;;;;10.83;5.80;;;3.20;99.90;;;;;;4991976;28;20218;-45
2022/03/13 05:07:11;;;;;;;8.77;5.30;;;3.20;99.90;;;;;;4999803;28;20803;-45
2022/03/13 05:09:38;;;;;;;8.83;5.43;;;3.10;99.90;;;;;;5004427;28;20318;-45
2022/03/13 05:12:09;;;;;;;7.80;5.80;;;3.10;99.90;;;;;;5003177;28;20336;-43
2022/03/13 05:14:36;;;;;;;9.30;5.93;;;3.10;99.90;;;;;;4988895;28;20217;-45
2022/03/13 05:17:05;;;;;;;7.37;5.10;;;3.20;99.90;;;;;;4996354;28;20442;-44
2022/03/13 05:19:32;;;;;;;8.57;5.03;;;3.20;99.90;;;;;;5003819;28;20351;-45
2022/03/13 05:21:59;;;;;;;10.70;5.57;;;3.20;99.90;;;;;;5007024;28;20253;-43
2022/03/13 05:24:26;;;;;;;11.37;5.60;;;3.30;99.90;;;;;;5011110;28;20230;-45
2022/03/13 05:26:53;;;;;;;10.07;5.77;;;3.20;99.90;;;;;;5008222;28;20304;-48
2022/03/13 05:29:20;;;;;;;12.23;5.23;;;3.20;99.90;;;;;;4982749;28;20659;-49
2022/03/13 05:31:47;;;;;;;17.37;5.50;;;3.10;99.90;;;;;;5016205;28;20211;-44
2022/03/13 05:34:15;;;;;;;8.10;5.20;;;3.10;99.90;;;;;;5011237;28;20291;-48
2022/03/13 05:36:42;;;;;;;8.30;5.43;;;3.10;99.90;;;;;;5007761;28;20273;-44
2022/03/13 05:39:10;;;;;;;7.27;5.00;;;3.00;99.90;;;;;;5000997;28;20425;-44
2022/03/13 05:41:40;;;;;;;8.63;5.80;;;3.10;99.90;;;;;;5011509;28;20206;-46
2022/03/13 05:44:09;;;;;;;9.93;5.33;;;3.10;99.90;;;;;;4999501;28;20772;-46
2022/03/13 05:46:35;;;;;;;6.67;4.93;;;3.10;99.90;;;;;;4993669;28;20217;-46
2022/03/13 05:49:03;;;;;;;12.07;5.40;;;3.00;99.90;;;;;;5013406;28;20208;-44
2022/03/13 05:51:37;;;;;;;7.67;5.13;;;2.90;99.90;;;;;;5001596;28;20444;-44
2022/03/13 05:54:04;;;;;;;7.80;5.20;;;3.00;99.90;;;;;;4997430;28;20637;-44
2022/03/13 05:56:32;;;;;;;8.37;5.47;;;2.90;99.90;;;;;;5004292;28;20219;-44
2022/03/13 05:58:59;;;;;;;9.43;5.30;;;3.00;99.90;;;;;;4996093;28;20295;-44
2022/03/13 06:01:27;;;;;;;9.17;5.77;;;3.00;99.90;;;;;;4997013;28;20279;-44
2022/03/13 06:03:53;;;;;;;8.47;5.27;;;3.00;99.90;;;;;;5002244;28;20415;-43
2022/03/13 06:06:21;;;;;;;7.70;5.20;;;3.10;99.90;;;;;;4986244;28;20280;-46
2022/03/13 06:08:49;;;;;;;8.33;5.17;;;3.00;99.90;;;;;;5005652;28;20211;-48
2022/03/13 06:11:16;;;;;;;15.33;4.73;;;3.10;99.90;;;;;;5014212;28;20800;-44
2022/03/13 06:13:43;;;;;;;12.43;5.40;;;3.00;99.90;;;;;;4991205;28;20300;-48
2022/03/13 06:16:10;;;;;;;7.57;5.07;;;3.10;99.90;;;;;;4997034;28;20247;-45
2022/03/13 06:18:37;;;;;;;9.30;5.93;;;3.10;99.90;;;;;;5017243;28;20314;-46
2022/03/13 06:21:05;;;;;;;10.53;5.10;;;3.10;99.90;;;;;;5000253;28;20223;-44
2022/03/13 06:23:33;;;;;;;8.50;5.57;;;3.20;99.90;;;;;;5013683;28;20261;-46
2022/03/13 06:26:02;;;;;;;7.90;5.17;;;3.30;99.90;;;;;;5009309;28;20606;-44
2022/03/13 06:28:31;;;;;;;9.90;6.10;;;3.30;99.90;;;;;;5000110;28;20225;-46
2022/03/13 06:30:59;;;;;;;7.83;5.33;;;3.30;99.90;;;;;;5000114;28;20205;-44
2022/03/13 06:33:27;;;;;;;7.53;4.77;;;3.30;99.90;;;;;;4996133;28;20581;-44
2022/03/13 06:35:54;;;;;;;7.97;5.30;;;3.30;99.90;;;;;;4985634;28;20216;-44
2022/03/13 06:38:22;;;;;;;8.87;5.00;;;3.20;99.90;;;;;;5015381;28;20310;-45
2022/03/13 06:40:48;;;;;;;8.77;5.57;;;3.30;99.90;;;;;;4987472;28;20302;-44
2022/03/13 06:43:17;;;;;;;7.03;4.83;;;3.30;99.90;;;;;;4999943;28;20305;-46
2022/03/13 06:45:44;;;;;;;8.73;5.03;;;3.30;99.90;;;;;;5012265;28;20224;-45
2022/03/13 06:48:13;;;;;;;9.67;4.93;;;3.30;99.90;;;;;;4985272;28;20318;-45
2022/03/13 06:50:40;;;;;;;8.47;5.47;;;3.30;99.90;;;;;;5009874;28;20280;-45
2022/03/13 06:53:09;;;;;;;6.73;4.77;;;3.40;99.90;;;;;;5008484;28;20224;-45
2022/03/13 06:55:36;;;;;;;8.07;5.40;;;3.40;99.90;;;;;;4996866;28;20213;-45
2022/03/13 06:58:03;;;;;;;10.17;5.27;;;3.40;99.90;;;;;;5001530;28;20213;-44
2022/03/13 07:00:31;;;;;;;8.40;5.07;;;3.50;99.90;;;;;;5001391;28;20264;-46
2022/03/13 07:02:58;;;;;;;9.67;5.60;;;3.60;99.90;;;;;;4962438;28;20238;-46
2022/03/13 07:05:25;;;;;;;8.87;5.27;;;3.60;99.90;;;;;;5012747;28;20422;-46
2022/03/13 07:07:54;;;;;;;9.73;5.30;;;3.70;99.90;;;;;;4989478;28;20930;-46
2022/03/13 07:10:21;;;;;;;7.20;5.13;;;3.70;99.90;;;;;;4998897;28;20659;-44
2022/03/13 07:12:48;;;;;;;9.77;5.63;;;3.80;99.90;;;;;;4997408;28;20295;-45
2022/03/13 07:15:16;;;;;;;8.10;4.90;;;3.80;99.90;;;;;;5007323;28;20212;-46
2022/03/13 07:17:45;;;;;;;7.90;4.77;;;3.80;99.90;;;;;;5010291;28;21118;-48
2022/03/13 07:20:13;;;;;;;7.73;5.20;;;3.90;99.90;;;;;;4992354;28;20465;-45
2022/03/13 07:22:40;;;;;;;8.20;5.00;;;3.90;99.90;;;;;;4989842;28;20269;-44
2022/03/13 07:25:08;;;;;;;9.40;5.53;;;4.00;99.90;;;;;;5004872;28;20245;-44
2022/03/13 07:27:34;;;;;;;7.27;4.83;;;4.10;99.90;;;;;;4997493;28;21034;-45
2022/03/13 07:30:01;;;;;;;9.87;5.70;;;4.20;99.90;;;;;;4993068;28;20241;-44
2022/03/13 07:32:28;;;;;;;8.97;4.97;;;4.20;99.90;;;;;;5010672;28;20334;-44
2022/03/13 07:34:56;;;;;;;9.50;5.40;;;4.30;99.90;;;;;;4988393;28;20216;-45
2022/03/13 07:37:24;;;;;;;8.10;5.03;;;4.30;99.90;;;;;;4998717;28;20244;-46
2022/03/13 07:39:51;;;;;;;7.73;4.73;;;4.40;99.90;;;;;;5009127;28;20252;-45
2022/03/13 07:42:18;;;;;;;10.83;5.43;;;4.50;99.90;;;;;;5006111;28;20225;-46
2022/03/13 07:44:45;;;;;;;6.57;5.00;;;4.50;99.90;;;;;;4997769;28;23016;-44
2022/03/13 07:47:12;;;;;;;10.00;5.40;;;4.60;99.90;;;;;;5000926;28;20488;-46
2022/03/13 07:49:39;;;;;;;8.20;5.30;;;4.60;99.90;;;;;;4981341;28;20302;-45
2022/03/13 07:52:08;;;;;;;9.77;4.77;;;4.70;99.90;;;;;;4991522;28;20383;-46
2022/03/13 07:54:35;;;;;;;7.70;5.03;;;4.70;99.90;;;;;;5002002;28;20645;-44
2022/03/13 07:57:02;;;;;;;8.03;4.73;;;4.80;99.90;;;;;;5009971;28;20237;-44
2022/03/13 07:59:29;;;;;;;6.73;4.90;;;4.80;99.90;;;;;;5008655;28;20678;-44
2022/03/13 08:01:56;;;;;;;8.93;5.03;;;4.90;99.90;;;;;;5003844;28;20226;-44
2022/03/13 08:04:24;;;;;;;7.13;4.80;;;5.00;99.90;;;;;;4974939;28;20214;-46
2022/03/13 08:06:51;;;;;;;11.27;5.07;;;5.10;99.90;;;;;;4998987;28;20214;-44
2022/03/13 08:09:19;;;;;;;7.83;5.17;;;5.10;99.90;;;;;;4986793;28;20313;-46
2022/03/13 08:11:46;;;;;;;9.03;5.27;;;5.20;99.90;;;;;;4997645;28;20534;-46
2022/03/13 08:14:13;;;;;;;7.67;5.20;;;5.30;99.90;;;;;;5007775;28;20244;-46
2022/03/13 08:16:41;;;;;;;7.97;4.73;;;5.30;99.90;;;;;;5018760;28;20806;-44
2022/03/13 08:19:09;;;;;;;8.30;4.93;;;5.40;99.90;;;;;;4999335;28;20210;-45
2022/03/13 08:21:36;;;;;;;5.53;4.43;;;5.40;99.90;;;;;;4988586;28;21435;-45
2022/03/13 08:24:05;;;;;;;9.33;5.30;;;5.50;99.90;;;;;;5003247;28;20285;-44
2022/03/13 08:26:35;;;;;;;6.87;5.07;;;5.50;99.90;;;;;;5012919;28;20308;-44
2022/03/13 08:29:01;;;;;;;9.20;4.93;;;5.60;99.90;;;;;;5005938;28;20316;-45
2022/03/13 08:31:28;;;;;;;6.80;5.17;;;5.60;99.90;;;;;;5012466;28;20202;-44
2022/03/13 08:33:56;;;;;;;9.07;5.37;;;5.70;99.90;;;;;;5007755;28;20236;-44
2022/03/13 08:36:24;;;;;;;8.60;5.40;;;5.80;99.90;;;;;;5003786;28;20517;-46
2022/03/13 08:38:50;;;;;;;8.63;5.23;;;5.90;99.90;;;;;;5021729;28;20206;-45
2022/03/13 08:41:17;;;;;;;7.53;5.20;;;6.00;99.90;;;;;;5006653;28;20235;-46
2022/03/13 08:43:46;;;;;;;9.93;5.27;;;6.00;99.90;;;;;;5015512;28;20304;-44
2022/03/13 08:46:13;;;;;;;9.13;5.60;;;6.10;99.90;;;;;;5011269;28;20213;-44
2022/03/13 08:48:40;;;;;;;8.73;5.57;;;6.20;99.90;;;;;;5000311;28;21031;-44
2022/03/13 08:51:08;;;;;;;8.83;4.83;;;6.20;99.90;;;;;;5002390;28;20713;-44
2022/03/13 08:53:35;;;;;;;8.73;5.60;;;6.30;99.90;;;;;;4997975;28;20447;-45
2022/03/13 08:56:02;;;;;;;8.93;5.83;;;6.40;99.90;;;;;;5008805;28;20529;-45
2022/03/13 08:58:28;;;;;;;8.77;5.30;;;6.50;99.90;;;;;;5013057;28;20191;-45
2022/03/13 09:00:57;;;;;;;9.43;5.17;;;6.60;99.90;;;;;;5013182;28;20238;-45
2022/03/13 09:03:26;;;;;;;6.23;4.83;;;6.60;99.90;;;;;;4994620;28;20230;-46
2022/03/13 09:05:55;;;;;;;8.90;5.47;;;6.60;99.90;;;;;;5004609;28;20574;-47
2022/03/13 09:08:23;;;;;;;9.87;5.47;;;6.60;99.90;;;;;;4990106;28;20207;-48
2022/03/13 09:10:52;;;;;;;8.80;5.50;;;6.70;99.90;;;;;;5000901;28;20658;-44
2022/03/13 09:13:20;;;;;;;7.93;5.30;;;6.70;99.90;;;;;;5011082;28;20306;-49
2022/03/13 09:15:47;;;;;;;8.73;5.67;;;6.80;99.90;;;;;;5014451;28;20241;-43
2022/03/13 09:18:15;;;;;;;9.50;5.50;;;6.80;99.90;;;;;;5019441;28;20251;-48
2022/03/13 09:20:42;;;;;;;6.43;4.90;;;6.80;99.90;;;;;;4984289;28;20586;-42
2022/03/13 09:23:10;;;;;;;12.97;5.63;;;6.90;99.90;;;;;;4985988;28;20332;-44
2022/03/13 09:25:37;;;;;;;10.20;5.23;;;6.90;99.90;;;;;;4998675;28;20213;-49
2022/03/13 09:28:05;;;;;;;7.40;5.33;;;7.00;99.90;;;;;;4996729;28;20227;-42
2022/03/13 09:30:32;;;;;;;8.90;5.67;;;7.00;99.90;;;;;;5008626;28;20216;-47
2022/03/13 09:33:00;;;;;;;6.87;4.70;;;7.10;99.90;;;;;;5003771;28;20485;-44
2022/03/13 09:35:29;;;;;;;9.80;5.17;;;7.20;99.90;;;;;;5001872;28;20207;-45
2022/03/13 09:37:56;;;;;;;7.43;5.40;;;7.30;99.90;;;;;;4969575;28;20442;-45
2022/03/13 09:40:22;;;;;;;15.63;5.00;;;7.30;99.90;;;;;;4996002;28;20243;-47
2022/03/13 09:42:49;;;;;;;7.70;5.10;;;7.30;99.90;;;;;;4977005;28;20225;-46
2022/03/13 09:45:17;;;;;;;10.03;5.83;;;7.40;99.90;;;;;;4984081;28;20218;-47
2022/03/13 09:47:43;;;;;;;8.20;5.30;;;7.50;99.90;;;;;;4996762;28;20209;-45
2022/03/13 09:50:12;;;;;;;7.17;5.10;;;7.50;99.90;;;;;;5012939;28;20206;-46
2022/03/13 09:52:42;;;;;;;10.30;5.43;;;7.60;99.90;;;;;;4993869;28;20226;-45
2022/03/13 09:55:10;;;;;;;7.30;5.63;;;7.70;99.90;;;;;;4992654;28;20244;-46
2022/03/13 09:57:40;;;;;;;9.13;5.53;;;7.70;99.90;;;;;;5000282;28;21172;-45
2022/03/13 10:00:09;;;;;;;8.00;4.97;;;7.80;99.90;;;;;;5001646;28;20210;-46
2022/03/13 10:02:38;;;;;;;9.43;5.47;;;7.80;99.90;;;;;;5009700;28;20264;-49
2022/03/13 10:05:08;;;;;;;9.50;5.27;;;7.90;99.90;;;;;;4996970;28;20249;-48
2022/03/13 10:07:54;;;;;;;9.07;4.93;;;7.90;99.90;;;;;;4989849;28;20207;-45
2022/03/13 10:10:22;;;;;;;6.83;5.13;;;8.10;99.90;;;;;;4985854;28;20238;-47
2022/03/13 10:12:49;;;;;;;8.33;5.20;;;8.10;99.90;;;;;;4984629;28;20444;-45
2022/03/13 10:15:16;;;;;;;8.37;5.33;;;8.20;99.90;;;;;;4994230;28;20645;-44
2022/03/13 10:17:43;;;;;;;6.37;4.87;;;8.20;99.90;;;;;;5000277;28;20231;-45
2022/03/13 10:20:19;;;;;;;6.53;5.20;;;8.30;99.90;;;;;;5013488;28;20608;-44
2022/03/13 10:22:49;;;;;;;7.33;5.00;;;8.40;99.90;;;;;;4990931;28;20241;-44
2022/03/13 10:25:29;;;;;;;9.00;5.03;;;8.50;99.90;;;;;;4980201;28;20411;-45
2022/03/13 10:28:14;;;;;;;11.00;5.90;;;8.50;99.90;;;;;;4996505;28;20452;-45
2022/03/13 10:30:41;;;;;;;8.57;5.70;;;8.60;99.90;;;;;;4998991;28;20205;-45
2022/03/13 10:33:08;;;;;;;10.13;5.40;;;8.70;99.90;;;;;;4977937;28;20241;-50
2022/03/13 10:35:35;;;;;;;7.93;4.80;;;8.80;99.90;;;;;;5003636;28;20198;-46
2022/03/13 10:38:13;;;;;;;7.33;5.13;;;8.80;99.90;;;;;;4990204;28;20216;-45
2022/03/13 10:40:42;;;;;;;7.57;4.93;;;9.00;99.90;;;;;;4993722;28;20325;-45
2022/03/13 10:43:09;;;;;;;9.67;5.10;;;9.10;99.90;;;;;;5000055;28;20237;-46
2022/03/13 10:45:37;;;;;;;8.17;5.60;;;9.20;99.90;;;;;;5004027;28;20992;-45
2022/03/13 10:48:23;;;;;;;7.43;5.20;;;9.20;99.90;;;;;;4999290;28;20583;-47
2022/03/13 10:50:52;;;;;;;8.93;5.23;;;9.30;99.90;;;;;;5014370;28;20229;-45
2022/03/13 10:53:19;;;;;;;8.70;4.70;;;9.40;99.90;;;;;;5003910;28;20300;-47
2022/03/13 10:56:02;;;;;;;7.47;5.07;;;9.50;99.90;;;;;;4997536;28;20973;-46
2022/03/13 10:58:30;;;;;;;9.27;6.03;;;9.50;99.90;;;;;;4984802;28;20514;-47
2022/03/13 11:01:05;;;;;;;7.30;5.03;;;9.60;99.90;;;;;;5017740;28;20236;-45
2022/03/13 11:03:34;;;;;;;6.47;4.93;;;9.80;99.90;;;;;;5010341;28;20605;-45
2022/03/13 11:06:01;;;;;;;7.37;5.13;;;9.90;99.90;;;;;;5003663;28;20469;-46
2022/03/13 11:08:28;;;;;;;6.20;4.90;;;9.90;99.90;;;;;;5008655;28;20193;-45
2022/03/13 11:10:57;;;;;;;8.00;5.43;;;10.00;99.90;;;;;;4996593;28;20210;-46
2022/03/13 11:13:27;;;;;;;7.63;5.03;;;10.10;99.90;;;;;;4973049;28;20656;-45
2022/03/13 11:15:58;;;;;;;8.03;4.93;;;10.10;99.90;;;;;;5004649;28;20206;-50
2022/03/13 11:18:32;;;;;;;6.50;4.40;;;10.10;99.90;;;;;;4996838;28;20206;-46
2022/03/13 11:20:59;;;;;;;5.83;4.77;;;10.10;99.90;;;;;;4986883;28;20216;-49
2022/03/13 11:23:32;;;;;;;6.07;4.70;;;10.10;99.90;;;;;;4988565;28;20226;-47
2022/03/13 11:26:00;;;;;;;7.23;5.47;;;10.20;99.90;;;;;;4983722;28;20240;-45
2022/03/13 11:28:29;;;;;;;9.40;4.75;;;10.30;99.90;;;;;;4984357;28;20521;-45
2022/03/13 11:30:57;;;;;;;9.43;6.10;;;10.30;99.90;;;;;;4982588;28;20653;-45
2022/03/13 11:33:35;;;;;;;8.60;4.87;;;10.30;99.90;;;;;;4992188;28;20805;-44
2022/03/13 11:36:30;;;;;;;9.53;5.53;;;10.40;99.90;;;;;;4995334;28;20268;-46
2022/03/13 11:39:01;;;;;;;12.00;4.87;;;10.50;99.90;;;;;;4987832;28;20220;-45
2022/03/13 11:41:36;;;;;;;8.57;4.87;;;10.50;99.90;;;;;;5003978;28;20230;-45
2022/03/13 11:44:07;;;;;;;5.13;4.33;;;10.60;99.90;;;;;;4956695;28;20311;-45
2022/03/13 11:46:43;;;;;;;6.50;3.80;;;10.60;99.90;;;;;;5009046;28;20207;-45
2022/03/13 11:49:17;;;;;;;7.50;5.32;;;10.70;99.90;;;;;;4986502;28;20512;-46
2022/03/13 11:51:45;;;;;;;7.00;4.90;;;10.70;99.90;;;;;;4995002;28;20200;-46
2022/03/13 11:54:15;;;;;;;7.38;4.80;;;10.80;99.90;;;;;;4994546;28;20289;-46
2022/03/13 11:56:51;;;;;;;7.22;5.15;;;10.90;99.90;;;;;;4987843;28;21114;-45
2022/03/13 11:59:22;;;;;;;6.90;4.93;;;10.90;99.90;;;;;;4985423;28;20564;-45
2022/03/13 12:01:52;;;;;;;7.97;5.07;;;11.00;99.90;;;;;;4980213;28;20766;-46
2022/03/13 12:04:26;;;;;;;9.40;4.67;;;11.00;99.90;;;;;;4997333;28;20230;-46
2022/03/13 12:07:00;;;;;;;14.25;5.00;;;11.00;99.90;;;;;;4982152;28;20201;-44
2022/03/13 12:09:43;;;;;;;4.72;4.18;;;11.10;99.30;;;;;;4981592;28;20214;-45
2022/03/13 12:12:13;;;;;;;5.70;4.13;;;11.10;98.80;;;;;;4995927;28;20565;-46
2022/03/13 12:15:01;;;;;;;9.50;3.90;;;11.10;98.70;;;;;;4986208;28;20828;-49
2022/03/13 12:17:30;;;;;;;5.95;4.70;;;11.20;98.70;;;;;;4991893;28;20218;-47
2022/03/13 12:19:59;;;;;;;7.88;4.60;;;11.20;98.30;;;;;;4987741;28;20208;-47
2022/03/13 12:22:29;;;;;;;8.98;4.70;;;11.30;97.80;;;;;;4993967;28;20304;-47
2022/03/13 12:25:00;;;;;;;6.25;3.85;;;11.30;98.30;;;;;;5000923;28;20221;-45
2022/03/13 12:27:27;;;;;;;6.55;4.55;;;11.30;99.10;;;;;;4983821;28;20205;-45
2022/03/13 12:29:56;;;;;;;6.75;5.13;;;11.30;98.20;;;;;;4997711;28;20207;-45
2022/03/13 12:32:30;;;;;;;6.75;4.10;;;11.30;97.90;;;;;;4969595;28;20322;-46
2022/03/13 12:34:57;;;;;;;7.10;4.53;;;11.30;99.30;;;;;;4990138;28;20206;-47
2022/03/13 12:37:26;;;;;;;5.00;4.07;;;11.30;98.10;;;;;;4990672;28;20206;-47
2022/03/13 12:39:57;;;;;;;5.75;4.07;;;11.50;98.90;;;;;;4990913;28;20221;-46
2022/03/13 12:42:26;;;;;;;5.22;4.13;;;11.40;97.80;;;;;;4997458;28;20225;-46
2022/03/13 12:45:09;;;;;;;7.13;4.00;;;11.50;97.50;;;;;;5008569;28;20593;-46
2022/03/13 12:47:40;;;;;;;6.50;4.22;;;11.50;96.50;;;;;;4985694;28;20210;-47
2022/03/13 12:50:10;;;;;;;4.20;3.70;;;11.50;95.70;;;;;;4998544;28;20725;-48
2022/03/13 12:52:38;;;;;;;5.82;4.40;;;11.60;96.10;;;;;;5001467;28;20261;-46
2022/03/13 12:55:08;;;;;;;10.35;4.32;;;11.60;96.50;;;;;;4976150;28;20209;-49
2022/03/13 12:57:36;;;;;;;7.72;4.18;;;11.60;97.00;;;;;;4982083;28;20210;-48
2022/03/13 13:00:04;;;;;;;4.90;4.05;;;11.90;97.00;;;;;;4996837;28;20432;-47
2022/03/13 13:02:33;;;;;;;4.75;3.80;;;11.70;97.30;;;;;;4975116;28;20240;-48